sensor_id;sensor_type;location;lat;lon;timestamp;P1;durP1;ratioP1;P2;durP2;ratioP2
33794;SDS011;51430;52.242;21.118;2023-06-24T00:00:07;5.10;;;4.60;;
33794;SDS011;51430;52.242;21.118;2023-06-24T00:02:58;4.90;;;4.40;;
33794;SDS011;51430;52.242;21.118;2023-06-24T00:05:29;4.90;;;4.50;;
33794;SDS011;51430;52.242;21.118;2023-06-24T00:07:59;5.80;;;4.60;;
33794;SDS011;51430;52.242;21.118;2023-06-24T00:10:29;5.60;;;4.80;;
33794;SDS011;51430;52.242;21.118;2023-06-24T00:12:58;4.80;;;4.30;;
33794;SDS011;51430;52.242;21.118;2023-06-24T00:15:29;5.10;;;4.60;;
33794;SDS011;51430;52.242;21.118;2023-06-24T00:17:57;5.40;;;4.60;;
33794;SDS011;51430;52.242;21.118;2023-06-24T00:20:34;5.50;;;4.80;;
33794;SDS011;51430;52.242;21.118;2023-06-24T00:23:02;4.90;;;4.50;;
33794;SDS011;51430;52.242;21.118;2023-06-24T00:25:30;4.90;;;4.50;;
33794;SDS011;51430;52.242;21.118;2023-06-24T00:27:59;4.70;;;4.30;;
33794;SDS011;51430;52.242;21.118;2023-06-24T00:30:27;5.90;;;4.60;;
33794;SDS011;51430;52.242;21.118;2023-06-24T00:32:55;5.10;;;4.60;;
33794;SDS011;51430;52.242;21.118;2023-06-24T00:35:23;5.30;;;4.50;;
33794;SDS011;51430;52.242;21.118;2023-06-24T00:37:51;5.00;;;4.60;;
33794;SDS011;51430;52.242;21.118;2023-06-24T00:40:25;5.10;;;4.60;;
33794;SDS011;51430;52.242;21.118;2023-06-24T00:42:53;5.00;;;4.50;;
33794;SDS011;51430;52.242;21.118;2023-06-24T00:45:24;5.30;;;4.80;;
33794;SDS011;51430;52.242;21.118;2023-06-24T00:47:52;5.10;;;4.60;;
33794;SDS011;51430;52.242;21.118;2023-06-24T00:50:22;5.20;;;4.60;;
33794;SDS011;51430;52.242;21.118;2023-06-24T00:52:51;5.90;;;4.50;;
33794;SDS011;51430;52.242;21.118;2023-06-24T00:55:19;5.10;;;4.40;;
33794;SDS011;51430;52.242;21.118;2023-06-24T00:57:51;5.20;;;4.60;;
33794;SDS011;51430;52.242;21.118;2023-06-24T01:00:21;5.00;;;4.50;;
33794;SDS011;51430;52.242;21.118;2023-06-24T01:02:50;6.10;;;4.50;;
33794;SDS011;51430;52.242;21.118;2023-06-24T01:05:19;5.20;;;4.80;;
33794;SDS011;51430;52.242;21.118;2023-06-24T01:07:51;5.40;;;4.60;;
33794;SDS011;51430;52.242;21.118;2023-06-24T01:10:23;5.10;;;4.60;;
33794;SDS011;51430;52.242;21.118;2023-06-24T01:12:51;5.50;;;4.50;;
33794;SDS011;51430;52.242;21.118;2023-06-24T01:15:19;5.30;;;4.50;;
33794;SDS011;51430;52.242;21.118;2023-06-24T01:29:40;5.20;;;4.40;;
33794;SDS011;51430;52.242;21.118;2023-06-24T01:35:05;5.10;;;4.30;;
33794;SDS011;51430;52.242;21.118;2023-06-24T01:37:57;5.30;;;4.70;;
33794;SDS011;51430;52.242;21.118;2023-06-24T01:40:32;5.90;;;4.60;;
33794;SDS011;51430;52.242;21.118;2023-06-24T01:43:08;5.40;;;4.40;;
33794;SDS011;51430;52.242;21.118;2023-06-24T01:45:41;4.80;;;4.30;;
33794;SDS011;51430;52.242;21.118;2023-06-24T01:48:19;4.70;;;4.20;;
33794;SDS011;51430;52.242;21.118;2023-06-24T01:50:58;4.50;;;4.10;;
33794;SDS011;51430;52.242;21.118;2023-06-24T01:53:36;4.70;;;4.20;;
33794;SDS011;51430;52.242;21.118;2023-06-24T01:56:09;4.60;;;4.20;;
33794;SDS011;51430;52.242;21.118;2023-06-24T01:58:40;6.50;;;4.20;;
33794;SDS011;51430;52.242;21.118;2023-06-24T02:01:10;5.60;;;4.30;;
33794;SDS011;51430;52.242;21.118;2023-06-24T02:03:41;5.70;;;4.20;;
33794;SDS011;51430;52.242;21.118;2023-06-24T02:06:10;5.00;;;4.50;;
33794;SDS011;51430;52.242;21.118;2023-06-24T02:08:39;5.30;;;4.60;;
33794;SDS011;51430;52.242;21.118;2023-06-24T02:11:10;5.80;;;4.40;;
33794;SDS011;51430;52.242;21.118;2023-06-24T02:13:41;5.10;;;4.50;;
33794;SDS011;51430;52.242;21.118;2023-06-24T02:16:10;5.30;;;4.70;;
33794;SDS011;51430;52.242;21.118;2023-06-24T02:18:39;5.90;;;4.70;;
33794;SDS011;51430;52.242;21.118;2023-06-24T02:21:11;5.90;;;4.90;;
33794;SDS011;51430;52.242;21.118;2023-06-24T02:23:40;5.70;;;4.60;;
33794;SDS011;51430;52.242;21.118;2023-06-24T02:26:09;4.90;;;4.40;;
33794;SDS011;51430;52.242;21.118;2023-06-24T02:28:38;5.20;;;4.60;;
33794;SDS011;51430;52.242;21.118;2023-06-24T02:31:08;5.20;;;4.70;;
33794;SDS011;51430;52.242;21.118;2023-06-24T02:33:38;5.80;;;4.80;;
33794;SDS011;51430;52.242;21.118;2023-06-24T02:36:06;6.60;;;4.90;;
33794;SDS011;51430;52.242;21.118;2023-06-24T02:38:34;7.20;;;5.10;;
33794;SDS011;51430;52.242;21.118;2023-06-24T02:41:02;7.20;;;4.90;;
33794;SDS011;51430;52.242;21.118;2023-06-24T02:43:33;5.60;;;5.00;;
33794;SDS011;51430;52.242;21.118;2023-06-24T02:46:03;6.30;;;4.80;;
33794;SDS011;51430;52.242;21.118;2023-06-24T02:48:34;5.80;;;4.70;;
33794;SDS011;51430;52.242;21.118;2023-06-24T02:51:06;5.70;;;5.00;;
33794;SDS011;51430;52.242;21.118;2023-06-24T02:53:35;5.10;;;4.60;;
33794;SDS011;51430;52.242;21.118;2023-06-24T02:56:05;5.80;;;5.00;;
33794;SDS011;51430;52.242;21.118;2023-06-24T02:58:36;7.60;;;5.50;;
33794;SDS011;51430;52.242;21.118;2023-06-24T03:01:05;5.50;;;5.00;;
33794;SDS011;51430;52.242;21.118;2023-06-24T03:03:36;6.10;;;5.20;;
33794;SDS011;51430;52.242;21.118;2023-06-24T03:13:25;6.20;;;5.60;;
33794;SDS011;51430;52.242;21.118;2023-06-24T03:15:52;6.20;;;5.50;;
33794;SDS011;51430;52.242;21.118;2023-06-24T03:18:19;6.40;;;5.70;;
33794;SDS011;51430;52.242;21.118;2023-06-24T03:20:46;6.30;;;5.70;;
33794;SDS011;51430;52.242;21.118;2023-06-24T03:23:13;6.40;;;5.40;;
33794;SDS011;51430;52.242;21.118;2023-06-24T03:25:39;6.50;;;5.50;;
33794;SDS011;51430;52.242;21.118;2023-06-24T03:28:08;7.20;;;5.80;;
33794;SDS011;51430;52.242;21.118;2023-06-24T03:30:34;6.60;;;5.60;;
33794;SDS011;51430;52.242;21.118;2023-06-24T03:33:01;6.20;;;5.60;;
33794;SDS011;51430;52.242;21.118;2023-06-24T03:35:28;6.60;;;5.50;;
33794;SDS011;51430;52.242;21.118;2023-06-24T03:37:56;6.10;;;5.50;;
33794;SDS011;51430;52.242;21.118;2023-06-24T03:40:22;5.90;;;5.40;;
33794;SDS011;51430;52.242;21.118;2023-06-24T03:42:48;7.00;;;5.40;;
33794;SDS011;51430;52.242;21.118;2023-06-24T03:45:15;6.30;;;5.30;;
33794;SDS011;51430;52.242;21.118;2023-06-24T03:47:42;6.60;;;5.60;;
33794;SDS011;51430;52.242;21.118;2023-06-24T03:50:08;7.00;;;5.60;;
33794;SDS011;51430;52.242;21.118;2023-06-24T03:52:35;6.20;;;5.60;;
33794;SDS011;51430;52.242;21.118;2023-06-24T03:55:01;6.80;;;5.70;;
33794;SDS011;51430;52.242;21.118;2023-06-24T03:57:34;6.40;;;5.60;;
33794;SDS011;51430;52.242;21.118;2023-06-24T04:00:01;8.50;;;5.70;;
33794;SDS011;51430;52.242;21.118;2023-06-24T04:02:34;6.20;;;5.60;;
33794;SDS011;51430;52.242;21.118;2023-06-24T04:05:03;6.70;;;5.80;;
33794;SDS011;51430;52.242;21.118;2023-06-24T04:07:32;7.30;;;5.50;;
33794;SDS011;51430;52.242;21.118;2023-06-24T04:09:59;6.90;;;5.80;;
33794;SDS011;51430;52.242;21.118;2023-06-24T04:12:26;6.70;;;6.00;;
33794;SDS011;51430;52.242;21.118;2023-06-24T04:14:52;6.60;;;5.90;;
33794;SDS011;51430;52.242;21.118;2023-06-24T04:17:19;7.10;;;6.00;;
33794;SDS011;51430;52.242;21.118;2023-06-24T04:19:46;6.00;;;5.40;;
33794;SDS011;51430;52.242;21.118;2023-06-24T04:22:12;6.70;;;6.00;;
33794;SDS011;51430;52.242;21.118;2023-06-24T04:24:39;6.60;;;5.70;;
33794;SDS011;51430;52.242;21.118;2023-06-24T04:27:06;6.40;;;5.80;;
33794;SDS011;51430;52.242;21.118;2023-06-24T04:29:35;6.60;;;6.00;;
33794;SDS011;51430;52.242;21.118;2023-06-24T04:32:01;7.20;;;6.10;;
33794;SDS011;51430;52.242;21.118;2023-06-24T04:34:28;6.40;;;5.80;;
33794;SDS011;51430;52.242;21.118;2023-06-24T04:36:54;6.40;;;5.60;;
33794;SDS011;51430;52.242;21.118;2023-06-24T04:39:21;6.40;;;5.80;;
33794;SDS011;51430;52.242;21.118;2023-06-24T04:41:47;6.20;;;5.60;;
33794;SDS011;51430;52.242;21.118;2023-06-24T04:44:14;6.30;;;5.70;;
33794;SDS011;51430;52.242;21.118;2023-06-24T04:46:40;9.10;;;5.80;;
33794;SDS011;51430;52.242;21.118;2023-06-24T04:49:07;7.50;;;5.90;;
33794;SDS011;51430;52.242;21.118;2023-06-24T04:51:33;6.70;;;5.80;;
33794;SDS011;51430;52.242;21.118;2023-06-24T04:54:02;6.50;;;5.60;;
33794;SDS011;51430;52.242;21.118;2023-06-24T04:56:30;6.60;;;5.70;;
33794;SDS011;51430;52.242;21.118;2023-06-24T04:58:56;9.10;;;5.60;;
33794;SDS011;51430;52.242;21.118;2023-06-24T05:01:23;5.40;;;5.00;;
33794;SDS011;51430;52.242;21.118;2023-06-24T05:03:50;7.00;;;5.00;;
33794;SDS011;51430;52.242;21.118;2023-06-24T05:06:17;5.70;;;5.00;;
33794;SDS011;51430;52.242;21.118;2023-06-24T05:08:43;6.90;;;5.00;;
33794;SDS011;51430;52.242;21.118;2023-06-24T05:11:10;5.50;;;5.00;;
33794;SDS011;51430;52.242;21.118;2023-06-24T05:13:37;6.00;;;5.00;;
33794;SDS011;51430;52.242;21.118;2023-06-24T05:16:04;7.10;;;5.00;;
33794;SDS011;51430;52.242;21.118;2023-06-24T05:18:32;6.00;;;5.40;;
33794;SDS011;51430;52.242;21.118;2023-06-24T05:20:59;7.20;;;5.10;;
33794;SDS011;51430;52.242;21.118;2023-06-24T05:23:26;6.60;;;5.20;;
33794;SDS011;51430;52.242;21.118;2023-06-24T05:26:03;5.30;;;4.80;;
33794;SDS011;51430;52.242;21.118;2023-06-24T05:28:30;5.90;;;5.10;;
33794;SDS011;51430;52.242;21.118;2023-06-24T05:30:57;7.10;;;5.40;;
33794;SDS011;51430;52.242;21.118;2023-06-24T05:33:24;5.80;;;5.10;;
33794;SDS011;51430;52.242;21.118;2023-06-24T05:35:50;7.20;;;4.70;;
33794;SDS011;51430;52.242;21.118;2023-06-24T05:38:18;7.80;;;5.10;;
33794;SDS011;51430;52.242;21.118;2023-06-24T05:40:44;6.10;;;5.00;;
33794;SDS011;51430;52.242;21.118;2023-06-24T05:43:11;5.50;;;4.80;;
33794;SDS011;51430;52.242;21.118;2023-06-24T05:45:37;6.20;;;4.70;;
33794;SDS011;51430;52.242;21.118;2023-06-24T05:48:07;5.20;;;4.70;;
33794;SDS011;51430;52.242;21.118;2023-06-24T05:50:37;5.60;;;4.30;;
33794;SDS011;51430;52.242;21.118;2023-06-24T05:53:04;5.10;;;4.60;;
33794;SDS011;51430;52.242;21.118;2023-06-24T05:55:31;7.10;;;4.70;;
33794;SDS011;51430;52.242;21.118;2023-06-24T05:58:00;5.70;;;4.80;;
33794;SDS011;51430;52.242;21.118;2023-06-24T06:00:26;5.00;;;4.50;;
33794;SDS011;51430;52.242;21.118;2023-06-24T06:02:54;5.50;;;4.30;;
33794;SDS011;51430;52.242;21.118;2023-06-24T06:05:21;5.90;;;4.40;;
33794;SDS011;51430;52.242;21.118;2023-06-24T06:07:47;7.00;;;4.40;;
33794;SDS011;51430;52.242;21.118;2023-06-24T06:10:14;5.30;;;4.20;;
33794;SDS011;51430;52.242;21.118;2023-06-24T06:12:43;7.80;;;4.70;;
33794;SDS011;51430;52.242;21.118;2023-06-24T06:15:10;7.30;;;4.80;;
33794;SDS011;51430;52.242;21.118;2023-06-24T06:17:37;6.60;;;4.90;;
33794;SDS011;51430;52.242;21.118;2023-06-24T06:20:04;7.40;;;4.90;;
33794;SDS011;51430;52.242;21.118;2023-06-24T06:22:31;8.90;;;5.10;;
33794;SDS011;51430;52.242;21.118;2023-06-24T06:25:06;6.50;;;5.10;;
33794;SDS011;51430;52.242;21.118;2023-06-24T06:27:33;7.40;;;5.10;;
33794;SDS011;51430;52.242;21.118;2023-06-24T06:30:00;6.40;;;4.50;;
33794;SDS011;51430;52.242;21.118;2023-06-24T06:32:27;6.10;;;4.60;;
33794;SDS011;51430;52.242;21.118;2023-06-24T06:34:54;10.80;;;4.90;;
33794;SDS011;51430;52.242;21.118;2023-06-24T06:37:22;9.40;;;4.80;;
33794;SDS011;51430;52.242;21.118;2023-06-24T06:39:48;6.00;;;4.20;;
33794;SDS011;51430;52.242;21.118;2023-06-24T06:42:15;6.70;;;4.20;;
33794;SDS011;51430;52.242;21.118;2023-06-24T06:44:42;7.50;;;4.20;;
33794;SDS011;51430;52.242;21.118;2023-06-24T06:47:10;5.30;;;4.10;;
33794;SDS011;51430;52.242;21.118;2023-06-24T06:49:37;6.60;;;4.40;;
33794;SDS011;51430;52.242;21.118;2023-06-24T06:52:03;6.20;;;3.90;;
33794;SDS011;51430;52.242;21.118;2023-06-24T06:54:30;6.00;;;4.00;;
33794;SDS011;51430;52.242;21.118;2023-06-24T06:57:05;7.90;;;4.20;;
33794;SDS011;51430;52.242;21.118;2023-06-24T06:59:32;6.60;;;4.00;;
33794;SDS011;51430;52.242;21.118;2023-06-24T07:02:00;7.90;;;4.10;;
33794;SDS011;51430;52.242;21.118;2023-06-24T07:04:27;7.60;;;4.10;;
33794;SDS011;51430;52.242;21.118;2023-06-24T07:06:53;4.70;;;3.80;;
33794;SDS011;51430;52.242;21.118;2023-06-24T07:09:20;4.90;;;3.90;;
33794;SDS011;51430;52.242;21.118;2023-06-24T07:11:47;4.10;;;3.70;;
33794;SDS011;51430;52.242;21.118;2023-06-24T07:14:16;4.40;;;4.00;;
33794;SDS011;51430;52.242;21.118;2023-06-24T07:16:43;6.70;;;4.00;;
33794;SDS011;51430;52.242;21.118;2023-06-24T07:19:09;5.20;;;3.90;;
33794;SDS011;51430;52.242;21.118;2023-06-24T07:21:37;4.50;;;3.90;;
33794;SDS011;51430;52.242;21.118;2023-06-24T07:24:04;4.50;;;3.90;;
33794;SDS011;51430;52.242;21.118;2023-06-24T07:26:31;5.10;;;4.00;;
33794;SDS011;51430;52.242;21.118;2023-06-24T07:28:58;4.70;;;4.10;;
33794;SDS011;51430;52.242;21.118;2023-06-24T07:31:35;4.80;;;4.20;;
33794;SDS011;51430;52.242;21.118;2023-06-24T07:34:03;5.50;;;4.10;;
33794;SDS011;51430;52.242;21.118;2023-06-24T07:36:33;5.30;;;4.20;;
33794;SDS011;51430;52.242;21.118;2023-06-24T07:39:00;5.40;;;3.70;;
33794;SDS011;51430;52.242;21.118;2023-06-24T07:41:27;8.00;;;4.30;;
33794;SDS011;51430;52.242;21.118;2023-06-24T07:43:54;4.60;;;4.00;;
33794;SDS011;51430;52.242;21.118;2023-06-24T07:46:21;7.10;;;4.00;;
33794;SDS011;51430;52.242;21.118;2023-06-24T07:48:48;4.80;;;3.50;;
33794;SDS011;51430;52.242;21.118;2023-06-24T07:51:14;3.70;;;3.30;;
33794;SDS011;51430;52.242;21.118;2023-06-24T07:53:41;4.20;;;3.50;;
33794;SDS011;51430;52.242;21.118;2023-06-24T07:56:07;3.70;;;3.40;;
33794;SDS011;51430;52.242;21.118;2023-06-24T07:58:34;7.00;;;3.50;;
33794;SDS011;51430;52.242;21.118;2023-06-24T08:01:01;4.30;;;3.60;;
33794;SDS011;51430;52.242;21.118;2023-06-24T08:03:28;7.50;;;3.70;;
33794;SDS011;51430;52.242;21.118;2023-06-24T08:05:55;5.50;;;4.10;;
33794;SDS011;51430;52.242;21.118;2023-06-24T08:08:22;6.00;;;3.50;;
33794;SDS011;51430;52.242;21.118;2023-06-24T08:10:49;6.10;;;3.50;;
33794;SDS011;51430;52.242;21.118;2023-06-24T08:13:15;4.70;;;3.50;;
33794;SDS011;51430;52.242;21.118;2023-06-24T08:15:42;6.10;;;3.70;;
33794;SDS011;51430;52.242;21.118;2023-06-24T08:18:09;4.20;;;3.60;;
33794;SDS011;51430;52.242;21.118;2023-06-24T08:20:36;4.00;;;3.60;;
33794;SDS011;51430;52.242;21.118;2023-06-24T08:23:02;4.10;;;3.70;;
33794;SDS011;51430;52.242;21.118;2023-06-24T08:25:28;4.50;;;3.60;;
33794;SDS011;51430;52.242;21.118;2023-06-24T08:27:56;4.90;;;3.20;;
33794;SDS011;51430;52.242;21.118;2023-06-24T08:30:22;4.20;;;3.40;;
33794;SDS011;51430;52.242;21.118;2023-06-24T08:32:49;4.30;;;3.20;;
33794;SDS011;51430;52.242;21.118;2023-06-24T08:35:16;3.90;;;2.90;;
33794;SDS011;51430;52.242;21.118;2023-06-24T08:37:42;4.40;;;3.10;;
33794;SDS011;51430;52.242;21.118;2023-06-24T08:40:09;3.50;;;3.20;;
33794;SDS011;51430;52.242;21.118;2023-06-24T08:42:35;6.00;;;3.20;;
33794;SDS011;51430;52.242;21.118;2023-06-24T08:45:02;4.00;;;3.30;;
33794;SDS011;51430;52.242;21.118;2023-06-24T08:47:29;3.60;;;3.30;;
33794;SDS011;51430;52.242;21.118;2023-06-24T08:50:15;4.50;;;3.30;;
33794;SDS011;51430;52.242;21.118;2023-06-24T08:52:51;3.30;;;3.00;;
33794;SDS011;51430;52.242;21.118;2023-06-24T08:55:22;4.70;;;3.30;;
33794;SDS011;51430;52.242;21.118;2023-06-24T08:57:50;4.50;;;3.40;;
33794;SDS011;51430;52.242;21.118;2023-06-24T09:00:17;3.80;;;3.20;;
33794;SDS011;51430;52.242;21.118;2023-06-24T09:02:44;3.80;;;3.30;;
33794;SDS011;51430;52.242;21.118;2023-06-24T09:05:11;4.60;;;3.10;;
33794;SDS011;51430;52.242;21.118;2023-06-24T09:07:38;4.40;;;3.20;;
33794;SDS011;51430;52.242;21.118;2023-06-24T09:10:10;7.80;;;5.40;;
33794;SDS011;51430;52.242;21.118;2023-06-24T09:12:36;4.30;;;3.30;;
33794;SDS011;51430;52.242;21.118;2023-06-24T09:15:05;3.40;;;3.00;;
33794;SDS011;51430;52.242;21.118;2023-06-24T09:17:32;5.20;;;3.30;;
33794;SDS011;51430;52.242;21.118;2023-06-24T09:20:05;3.70;;;3.30;;
33794;SDS011;51430;52.242;21.118;2023-06-24T09:22:40;5.70;;;3.40;;
33794;SDS011;51430;52.242;21.118;2023-06-24T09:25:08;3.50;;;3.20;;
33794;SDS011;51430;52.242;21.118;2023-06-24T09:27:35;3.70;;;3.40;;
33794;SDS011;51430;52.242;21.118;2023-06-24T09:30:15;4.10;;;3.40;;
33794;SDS011;51430;52.242;21.118;2023-06-24T09:32:47;7.00;;;3.80;;
33794;SDS011;51430;52.242;21.118;2023-06-24T09:35:14;4.60;;;3.50;;
33794;SDS011;51430;52.242;21.118;2023-06-24T09:37:48;3.70;;;3.40;;
33794;SDS011;51430;52.242;21.118;2023-06-24T09:40:15;4.60;;;3.40;;
33794;SDS011;51430;52.242;21.118;2023-06-24T09:42:51;5.80;;;3.90;;
33794;SDS011;51430;52.242;21.118;2023-06-24T09:45:26;4.70;;;3.50;;
33794;SDS011;51430;52.242;21.118;2023-06-24T09:47:54;4.50;;;3.50;;
33794;SDS011;51430;52.242;21.118;2023-06-24T09:50:22;5.70;;;3.70;;
33794;SDS011;51430;52.242;21.118;2023-06-24T09:52:49;6.10;;;3.30;;
33794;SDS011;51430;52.242;21.118;2023-06-24T09:55:24;4.70;;;3.30;;
33794;SDS011;51430;52.242;21.118;2023-06-24T09:57:51;4.00;;;3.40;;
33794;SDS011;51430;52.242;21.118;2023-06-24T10:00:20;5.40;;;3.60;;
33794;SDS011;51430;52.242;21.118;2023-06-24T10:02:48;4.50;;;3.60;;
33794;SDS011;51430;52.242;21.118;2023-06-24T10:05:19;3.80;;;3.40;;
33794;SDS011;51430;52.242;21.118;2023-06-24T10:07:47;5.60;;;3.60;;
33794;SDS011;51430;52.242;21.118;2023-06-24T10:10:14;6.80;;;3.70;;
33794;SDS011;51430;52.242;21.118;2023-06-24T10:12:43;3.90;;;3.50;;
33794;SDS011;51430;52.242;21.118;2023-06-24T10:15:10;4.40;;;3.40;;
33794;SDS011;51430;52.242;21.118;2023-06-24T10:17:37;3.80;;;3.40;;
33794;SDS011;51430;52.242;21.118;2023-06-24T10:20:04;4.30;;;3.80;;
33794;SDS011;51430;52.242;21.118;2023-06-24T10:22:32;4.10;;;3.70;;
33794;SDS011;51430;52.242;21.118;2023-06-24T10:25:00;5.60;;;3.70;;
33794;SDS011;51430;52.242;21.118;2023-06-24T10:27:31;4.30;;;3.70;;
33794;SDS011;51430;52.242;21.118;2023-06-24T10:30:06;5.50;;;3.70;;
33794;SDS011;51430;52.242;21.118;2023-06-24T10:32:40;4.10;;;3.50;;
33794;SDS011;51430;52.242;21.118;2023-06-24T10:41:22;4.90;;;3.70;;
33794;SDS011;51430;52.242;21.118;2023-06-24T10:43:53;5.10;;;3.60;;
33794;SDS011;51430;52.242;21.118;2023-06-24T10:46:26;6.80;;;3.70;;
33794;SDS011;51430;52.242;21.118;2023-06-24T10:48:55;3.90;;;3.40;;
33794;SDS011;51430;52.242;21.118;2023-06-24T10:51:23;5.50;;;3.70;;
33794;SDS011;51430;52.242;21.118;2023-06-24T10:53:50;5.70;;;3.80;;
33794;SDS011;51430;52.242;21.118;2023-06-24T10:56:20;4.00;;;3.50;;
33794;SDS011;51430;52.242;21.118;2023-06-24T10:58:56;5.00;;;3.90;;
33794;SDS011;51430;52.242;21.118;2023-06-24T11:01:24;5.30;;;3.70;;
33794;SDS011;51430;52.242;21.118;2023-06-24T11:03:51;4.20;;;3.50;;
33794;SDS011;51430;52.242;21.118;2023-06-24T11:06:20;4.10;;;3.60;;
33794;SDS011;51430;52.242;21.118;2023-06-24T11:08:48;4.60;;;3.70;;
33794;SDS011;51430;52.242;21.118;2023-06-24T11:11:19;3.80;;;3.50;;
33794;SDS011;51430;52.242;21.118;2023-06-24T11:13:49;5.40;;;4.20;;
33794;SDS011;51430;52.242;21.118;2023-06-24T11:16:20;4.50;;;3.60;;
33794;SDS011;51430;52.242;21.118;2023-06-24T11:18:48;4.80;;;3.40;;
33794;SDS011;51430;52.242;21.118;2023-06-24T11:21:16;4.60;;;3.60;;
33794;SDS011;51430;52.242;21.118;2023-06-24T11:23:44;4.90;;;4.00;;
33794;SDS011;51430;52.242;21.118;2023-06-24T11:26:14;4.70;;;3.70;;
33794;SDS011;51430;52.242;21.118;2023-06-24T11:28:42;4.20;;;3.80;;
33794;SDS011;51430;52.242;21.118;2023-06-24T11:31:10;4.80;;;3.80;;
33794;SDS011;51430;52.242;21.118;2023-06-24T11:33:40;6.00;;;3.80;;
33794;SDS011;51430;52.242;21.118;2023-06-24T11:36:20;8.00;;;3.90;;
33794;SDS011;51430;52.242;21.118;2023-06-24T11:38:50;7.90;;;3.80;;
33794;SDS011;51430;52.242;21.118;2023-06-24T11:41:20;4.70;;;3.90;;
33794;SDS011;51430;52.242;21.118;2023-06-24T11:43:49;5.10;;;3.90;;
33794;SDS011;51430;52.242;21.118;2023-06-24T11:46:20;5.00;;;3.90;;
33794;SDS011;51430;52.242;21.118;2023-06-24T11:48:49;4.20;;;3.80;;
33794;SDS011;51430;52.242;21.118;2023-06-24T11:51:17;5.90;;;4.10;;
33794;SDS011;51430;52.242;21.118;2023-06-24T11:53:45;4.30;;;3.90;;
33794;SDS011;51430;52.242;21.118;2023-06-24T11:56:13;5.20;;;4.00;;
33794;SDS011;51430;52.242;21.118;2023-06-24T11:58:42;5.40;;;3.80;;
33794;SDS011;51430;52.242;21.118;2023-06-24T12:01:11;4.70;;;3.90;;
33794;SDS011;51430;52.242;21.118;2023-06-24T12:03:40;5.40;;;4.20;;
33794;SDS011;51430;52.242;21.118;2023-06-24T12:06:09;4.80;;;4.00;;
33794;SDS011;51430;52.242;21.118;2023-06-24T12:08:36;5.20;;;4.00;;
33794;SDS011;51430;52.242;21.118;2023-06-24T12:11:18;5.70;;;4.00;;
33794;SDS011;51430;52.242;21.118;2023-06-24T12:13:47;4.60;;;3.70;;
33794;SDS011;51430;52.242;21.118;2023-06-24T12:16:14;4.30;;;3.80;;
33794;SDS011;51430;52.242;21.118;2023-06-24T12:18:42;5.00;;;3.70;;
33794;SDS011;51430;52.242;21.118;2023-06-24T12:21:10;5.20;;;3.80;;
33794;SDS011;51430;52.242;21.118;2023-06-24T12:23:38;6.10;;;4.00;;
33794;SDS011;51430;52.242;21.118;2023-06-24T12:26:06;5.90;;;3.90;;
33794;SDS011;51430;52.242;21.118;2023-06-24T12:28:34;4.70;;;3.90;;
33794;SDS011;51430;52.242;21.118;2023-06-24T12:31:02;4.50;;;3.80;;
33794;SDS011;51430;52.242;21.118;2023-06-24T12:33:30;4.60;;;3.80;;
33794;SDS011;51430;52.242;21.118;2023-06-24T12:35:58;5.00;;;4.00;;
33794;SDS011;51430;52.242;21.118;2023-06-24T12:38:26;5.30;;;4.20;;
33794;SDS011;51430;52.242;21.118;2023-06-24T12:40:54;5.20;;;4.10;;
33794;SDS011;51430;52.242;21.118;2023-06-24T12:43:23;5.90;;;4.20;;
33794;SDS011;51430;52.242;21.118;2023-06-24T12:45:51;5.00;;;4.10;;
33794;SDS011;51430;52.242;21.118;2023-06-24T12:48:19;4.30;;;3.90;;
33794;SDS011;51430;52.242;21.118;2023-06-24T12:51:03;5.20;;;3.90;;
33794;SDS011;51430;52.242;21.118;2023-06-24T12:53:32;5.30;;;4.30;;
33794;SDS011;51430;52.242;21.118;2023-06-24T12:56:00;5.90;;;3.70;;
33794;SDS011;51430;52.242;21.118;2023-06-24T12:58:27;4.40;;;3.90;;
33794;SDS011;51430;52.242;21.118;2023-06-24T13:00:55;4.10;;;3.70;;
33794;SDS011;51430;52.242;21.118;2023-06-24T13:03:24;5.40;;;4.10;;
33794;SDS011;51430;52.242;21.118;2023-06-24T13:05:52;6.00;;;4.10;;
33794;SDS011;51430;52.242;21.118;2023-06-24T13:08:21;5.30;;;4.00;;
33794;SDS011;51430;52.242;21.118;2023-06-24T13:10:48;6.80;;;4.00;;
33794;SDS011;51430;52.242;21.118;2023-06-24T13:13:16;4.30;;;3.80;;
33794;SDS011;51430;52.242;21.118;2023-06-24T13:15:44;4.50;;;3.70;;
33794;SDS011;51430;52.242;21.118;2023-06-24T13:18:12;4.30;;;3.80;;
33794;SDS011;51430;52.242;21.118;2023-06-24T13:20:40;4.50;;;3.80;;
33794;SDS011;51430;52.242;21.118;2023-06-24T13:23:28;4.40;;;3.80;;
33794;SDS011;51430;52.242;21.118;2023-06-24T13:26:06;5.10;;;4.30;;
33794;SDS011;51430;52.242;21.118;2023-06-24T13:28:34;11.60;;;4.40;;
33794;SDS011;51430;52.242;21.118;2023-06-24T13:31:01;4.80;;;4.20;;
33794;SDS011;51430;52.242;21.118;2023-06-24T13:33:29;6.40;;;4.00;;
33794;SDS011;51430;52.242;21.118;2023-06-24T13:35:57;6.80;;;4.70;;
33794;SDS011;51430;52.242;21.118;2023-06-24T13:38:26;5.90;;;4.30;;
33794;SDS011;51430;52.242;21.118;2023-06-24T13:45:12;7.70;;;4.30;;
33794;SDS011;51430;52.242;21.118;2023-06-24T13:47:40;5.50;;;4.10;;
33794;SDS011;51430;52.242;21.118;2023-06-24T13:50:09;4.90;;;4.00;;
33794;SDS011;51430;52.242;21.118;2023-06-24T13:52:37;5.80;;;4.00;;
33794;SDS011;51430;52.242;21.118;2023-06-24T13:55:05;6.80;;;4.00;;
33794;SDS011;51430;52.242;21.118;2023-06-24T13:57:33;4.80;;;3.90;;
33794;SDS011;51430;52.242;21.118;2023-06-24T14:00:02;4.30;;;3.70;;
33794;SDS011;51430;52.242;21.118;2023-06-24T14:02:33;5.20;;;3.80;;
33794;SDS011;51430;52.242;21.118;2023-06-24T14:05:07;4.20;;;3.80;;
33794;SDS011;51430;52.242;21.118;2023-06-24T14:07:35;4.90;;;3.60;;
33794;SDS011;51430;52.242;21.118;2023-06-24T14:10:03;4.00;;;3.60;;
33794;SDS011;51430;52.242;21.118;2023-06-24T14:12:34;5.90;;;3.60;;
33794;SDS011;51430;52.242;21.118;2023-06-24T14:15:02;5.30;;;3.60;;
33794;SDS011;51430;52.242;21.118;2023-06-24T14:17:36;4.50;;;3.60;;
33794;SDS011;51430;52.242;21.118;2023-06-24T14:20:10;4.10;;;3.30;;
33794;SDS011;51430;52.242;21.118;2023-06-24T14:22:39;5.00;;;3.00;;
33794;SDS011;51430;52.242;21.118;2023-06-24T14:25:07;3.80;;;2.90;;
33794;SDS011;51430;52.242;21.118;2023-06-24T14:27:40;4.50;;;3.60;;
33794;SDS011;51430;52.242;21.118;2023-06-24T14:30:08;5.00;;;3.60;;
33794;SDS011;51430;52.242;21.118;2023-06-24T14:32:37;5.00;;;3.60;;
33794;SDS011;51430;52.242;21.118;2023-06-24T14:35:05;3.70;;;3.40;;
33794;SDS011;51430;52.242;21.118;2023-06-24T14:37:34;6.30;;;3.80;;
33794;SDS011;51430;52.242;21.118;2023-06-24T14:40:02;5.20;;;3.60;;
33794;SDS011;51430;52.242;21.118;2023-06-24T14:42:36;4.80;;;3.50;;
33794;SDS011;51430;52.242;21.118;2023-06-24T14:45:06;6.30;;;3.70;;
33794;SDS011;51430;52.242;21.118;2023-06-24T14:47:34;4.60;;;3.70;;
33794;SDS011;51430;52.242;21.118;2023-06-24T14:50:03;6.00;;;3.40;;
33794;SDS011;51430;52.242;21.118;2023-06-24T14:52:36;4.70;;;3.90;;
33794;SDS011;51430;52.242;21.118;2023-06-24T14:55:05;4.70;;;3.90;;
33794;SDS011;51430;52.242;21.118;2023-06-24T14:57:34;4.50;;;4.10;;
33794;SDS011;51430;52.242;21.118;2023-06-24T15:00:03;4.80;;;4.10;;
33794;SDS011;51430;52.242;21.118;2023-06-24T15:02:37;5.40;;;4.10;;
33794;SDS011;51430;52.242;21.118;2023-06-24T15:05:05;7.50;;;4.00;;
33794;SDS011;51430;52.242;21.118;2023-06-24T15:07:34;5.00;;;4.00;;
33794;SDS011;51430;52.242;21.118;2023-06-24T15:10:02;4.90;;;4.00;;
33794;SDS011;51430;52.242;21.118;2023-06-24T15:12:32;5.60;;;4.30;;
33794;SDS011;51430;52.242;21.118;2023-06-24T15:15:02;6.20;;;4.30;;